sensor_id;sensor_type;location;lat;lon;timestamp;P1;durP1;ratioP1;P2;durP2;ratioP2
26407;SDS011;14583;43.604;1.364;2022-10-16T00:01:09;8.93;;;6.70;;
26407;SDS011;14583;43.604;1.364;2022-10-16T00:03:37;13.52;;;7.13;;
26407;SDS011;14583;43.604;1.364;2022-10-16T00:06:04;10.02;;;6.22;;
26407;SDS011;14583;43.604;1.364;2022-10-16T00:08:30;12.52;;;6.65;;
26407;SDS011;14583;43.604;1.364;2022-10-16T00:11:03;11.60;;;6.75;;
26407;SDS011;14583;43.604;1.364;2022-10-16T00:13:50;7.53;;;6.47;;
26407;SDS011;14583;43.604;1.364;2022-10-16T00:16:19;10.55;;;6.97;;
26407;SDS011;14583;43.604;1.364;2022-10-16T00:18:45;10.98;;;7.40;;
26407;SDS011;14583;43.604;1.364;2022-10-16T00:21:15;10.68;;;7.00;;
26407;SDS011;14583;43.604;1.364;2022-10-16T00:23:42;10.27;;;7.07;;
26407;SDS011;14583;43.604;1.364;2022-10-16T00:26:10;10.25;;;6.65;;
26407;SDS011;14583;43.604;1.364;2022-10-16T00:28:38;16.20;;;6.70;;
26407;SDS011;14583;43.604;1.364;2022-10-16T00:31:05;12.88;;;7.38;;
26407;SDS011;14583;43.604;1.364;2022-10-16T00:33:31;10.73;;;6.97;;
26407;SDS011;14583;43.604;1.364;2022-10-16T00:35:58;8.95;;;6.75;;
26407;SDS011;14583;43.604;1.364;2022-10-16T00:38:24;11.40;;;6.88;;
26407;SDS011;14583;43.604;1.364;2022-10-16T00:40:50;10.35;;;7.13;;
26407;SDS011;14583;43.604;1.364;2022-10-16T00:46:04;11.25;;;6.70;;
26407;SDS011;14583;43.604;1.364;2022-10-16T00:48:37;9.35;;;6.50;;
26407;SDS011;14583;43.604;1.364;2022-10-16T00:51:03;18.40;;;8.40;;
26407;SDS011;14583;43.604;1.364;2022-10-16T00:53:30;13.48;;;7.22;;
26407;SDS011;14583;43.604;1.364;2022-10-16T00:55:56;8.65;;;7.25;;
26407;SDS011;14583;43.604;1.364;2022-10-16T00:58:22;10.60;;;7.18;;
26407;SDS011;14583;43.604;1.364;2022-10-16T01:00:47;10.05;;;7.20;;
26407;SDS011;14583;43.604;1.364;2022-10-16T01:03:30;10.48;;;6.97;;
26407;SDS011;14583;43.604;1.364;2022-10-16T01:09:20;8.05;;;6.57;;
26407;SDS011;14583;43.604;1.364;2022-10-16T01:12:12;9.93;;;6.65;;
26407;SDS011;14583;43.604;1.364;2022-10-16T01:14:45;10.45;;;7.15;;
26407;SDS011;14583;43.604;1.364;2022-10-16T01:17:29;13.48;;;6.65;;
26407;SDS011;14583;43.604;1.364;2022-10-16T01:20:25;8.77;;;7.25;;
26407;SDS011;14583;43.604;1.364;2022-10-16T01:22:56;12.13;;;7.53;;
26407;SDS011;14583;43.604;1.364;2022-10-16T01:25:36;11.38;;;7.10;;
26407;SDS011;14583;43.604;1.364;2022-10-16T01:28:19;9.32;;;7.00;;
26407;SDS011;14583;43.604;1.364;2022-10-16T01:30:50;15.52;;;8.02;;
26407;SDS011;14583;43.604;1.364;2022-10-16T01:33:22;11.52;;;8.18;;
26407;SDS011;14583;43.604;1.364;2022-10-16T01:35:54;11.98;;;7.32;;
26407;SDS011;14583;43.604;1.364;2022-10-16T01:41:01;9.25;;;7.47;;
26407;SDS011;14583;43.604;1.364;2022-10-16T01:43:43;10.10;;;7.40;;
26407;SDS011;14583;43.604;1.364;2022-10-16T01:48:40;13.80;;;8.15;;
26407;SDS011;14583;43.604;1.364;2022-10-16T01:51:08;14.00;;;7.80;;
26407;SDS011;14583;43.604;1.364;2022-10-16T01:53:36;15.00;;;8.02;;
26407;SDS011;14583;43.604;1.364;2022-10-16T01:56:04;16.52;;;7.45;;
26407;SDS011;14583;43.604;1.364;2022-10-16T01:58:35;10.77;;;7.97;;
26407;SDS011;14583;43.604;1.364;2022-10-16T02:01:04;15.48;;;7.82;;
26407;SDS011;14583;43.604;1.364;2022-10-16T02:03:34;10.05;;;7.78;;
26407;SDS011;14583;43.604;1.364;2022-10-16T02:06:00;14.38;;;8.30;;
26407;SDS011;14583;43.604;1.364;2022-10-16T02:08:28;17.40;;;8.68;;
26407;SDS011;14583;43.604;1.364;2022-10-16T02:10:56;11.38;;;7.13;;
26407;SDS011;14583;43.604;1.364;2022-10-16T02:13:23;15.95;;;8.88;;
26407;SDS011;14583;43.604;1.364;2022-10-16T02:16:12;19.27;;;9.38;;
26407;SDS011;14583;43.604;1.364;2022-10-16T02:18:39;12.98;;;8.88;;
26407;SDS011;14583;43.604;1.364;2022-10-16T02:21:08;15.93;;;8.68;;
26407;SDS011;14583;43.604;1.364;2022-10-16T02:23:45;13.75;;;8.23;;
26407;SDS011;14583;43.604;1.364;2022-10-16T02:26:27;14.90;;;9.45;;
26407;SDS011;14583;43.604;1.364;2022-10-16T02:29:02;12.57;;;9.63;;
26407;SDS011;14583;43.604;1.364;2022-10-16T02:31:32;15.65;;;10.32;;
26407;SDS011;14583;43.604;1.364;2022-10-16T02:34:00;16.90;;;10.48;;
26407;SDS011;14583;43.604;1.364;2022-10-16T02:36:30;15.60;;;9.63;;
26407;SDS011;14583;43.604;1.364;2022-10-16T02:38:57;15.65;;;9.00;;
26407;SDS011;14583;43.604;1.364;2022-10-16T02:41:25;14.95;;;9.95;;
26407;SDS011;14583;43.604;1.364;2022-10-16T02:43:51;16.98;;;10.55;;
26407;SDS011;14583;43.604;1.364;2022-10-16T02:46:17;13.43;;;9.70;;
26407;SDS011;14583;43.604;1.364;2022-10-16T02:48:43;16.67;;;10.65;;
26407;SDS011;14583;43.604;1.364;2022-10-16T02:51:09;18.27;;;10.45;;
26407;SDS011;14583;43.604;1.364;2022-10-16T02:53:35;16.63;;;9.68;;
26407;SDS011;14583;43.604;1.364;2022-10-16T02:56:01;15.73;;;10.07;;
26407;SDS011;14583;43.604;1.364;2022-10-16T02:58:26;14.98;;;10.32;;
26407;SDS011;14583;43.604;1.364;2022-10-16T03:00:52;17.17;;;9.93;;
26407;SDS011;14583;43.604;1.364;2022-10-16T03:03:18;19.60;;;10.00;;
26407;SDS011;14583;43.604;1.364;2022-10-16T03:05:44;18.08;;;10.32;;
26407;SDS011;14583;43.604;1.364;2022-10-16T03:08:11;17.30;;;10.82;;
26407;SDS011;14583;43.604;1.364;2022-10-16T03:10:37;14.88;;;10.38;;
26407;SDS011;14583;43.604;1.364;2022-10-16T03:13:02;22.83;;;11.30;;
26407;SDS011;14583;43.604;1.364;2022-10-16T03:15:28;16.38;;;9.68;;
26407;SDS011;14583;43.604;1.364;2022-10-16T03:17:54;15.50;;;9.07;;
26407;SDS011;14583;43.604;1.364;2022-10-16T03:20:22;14.27;;;8.65;;
26407;SDS011;14583;43.604;1.364;2022-10-16T03:22:47;19.80;;;10.85;;
26407;SDS011;14583;43.604;1.364;2022-10-16T03:25:13;14.30;;;10.98;;
26407;SDS011;14583;43.604;1.364;2022-10-16T03:27:39;13.93;;;10.15;;
26407;SDS011;14583;43.604;1.364;2022-10-16T03:30:04;16.83;;;9.93;;
26407;SDS011;14583;43.604;1.364;2022-10-16T03:32:31;18.35;;;9.95;;
26407;SDS011;14583;43.604;1.364;2022-10-16T03:34:56;20.85;;;9.85;;
26407;SDS011;14583;43.604;1.364;2022-10-16T03:37:22;15.35;;;10.07;;
26407;SDS011;14583;43.604;1.364;2022-10-16T03:39:48;19.35;;;9.57;;
26407;SDS011;14583;43.604;1.364;2022-10-16T03:42:13;13.20;;;10.88;;
26407;SDS011;14583;43.604;1.364;2022-10-16T03:44:39;18.38;;;9.07;;
26407;SDS011;14583;43.604;1.364;2022-10-16T03:47:04;15.45;;;10.30;;
26407;SDS011;14583;43.604;1.364;2022-10-16T03:49:30;16.15;;;10.23;;
26407;SDS011;14583;43.604;1.364;2022-10-16T03:51:55;15.30;;;10.30;;
26407;SDS011;14583;43.604;1.364;2022-10-16T03:54:21;15.63;;;10.25;;
26407;SDS011;14583;43.604;1.364;2022-10-16T03:56:47;16.98;;;9.20;;
26407;SDS011;14583;43.604;1.364;2022-10-16T03:59:13;17.42;;;10.60;;
26407;SDS011;14583;43.604;1.364;2022-10-16T04:01:38;22.38;;;10.68;;
26407;SDS011;14583;43.604;1.364;2022-10-16T04:04:04;14.38;;;10.35;;
26407;SDS011;14583;43.604;1.364;2022-10-16T04:06:30;20.30;;;11.25;;
26407;SDS011;14583;43.604;1.364;2022-10-16T04:08:55;16.98;;;10.50;;
26407;SDS011;14583;43.604;1.364;2022-10-16T04:11:21;14.65;;;10.20;;
26407;SDS011;14583;43.604;1.364;2022-10-16T04:13:47;20.52;;;11.13;;
26407;SDS011;14583;43.604;1.364;2022-10-16T04:16:13;18.88;;;11.23;;
26407;SDS011;14583;43.604;1.364;2022-10-16T04:18:39;18.63;;;10.50;;
26407;SDS011;14583;43.604;1.364;2022-10-16T04:21:05;16.02;;;10.80;;
26407;SDS011;14583;43.604;1.364;2022-10-16T04:23:31;18.80;;;10.32;;
26407;SDS011;14583;43.604;1.364;2022-10-16T04:25:57;15.80;;;10.93;;
26407;SDS011;14583;43.604;1.364;2022-10-16T04:28:23;15.65;;;10.70;;
26407;SDS011;14583;43.604;1.364;2022-10-16T04:30:49;21.25;;;10.95;;
26407;SDS011;14583;43.604;1.364;2022-10-16T04:33:14;16.50;;;10.25;;
26407;SDS011;14583;43.604;1.364;2022-10-16T04:35:40;23.90;;;10.82;;
26407;SDS011;14583;43.604;1.364;2022-10-16T04:38:05;18.73;;;10.90;;
26407;SDS011;14583;43.604;1.364;2022-10-16T04:40:31;25.42;;;10.98;;
26407;SDS011;14583;43.604;1.364;2022-10-16T04:43:02;18.98;;;10.32;;
26407;SDS011;14583;43.604;1.364;2022-10-16T04:45:28;21.67;;;10.55;;
26407;SDS011;14583;43.604;1.364;2022-10-16T04:47:56;19.67;;;10.35;;
26407;SDS011;14583;43.604;1.364;2022-10-16T04:50:25;16.25;;;10.25;;
26407;SDS011;14583;43.604;1.364;2022-10-16T04:52:51;17.40;;;9.80;;
26407;SDS011;14583;43.604;1.364;2022-10-16T04:55:16;15.50;;;10.30;;
26407;SDS011;14583;43.604;1.364;2022-10-16T04:57:42;23.58;;;11.35;;
26407;SDS011;14583;43.604;1.364;2022-10-16T05:00:08;27.00;;;10.23;;
26407;SDS011;14583;43.604;1.364;2022-10-16T05:02:34;19.65;;;11.15;;
26407;SDS011;14583;43.604;1.364;2022-10-16T05:04:59;17.05;;;10.38;;
26407;SDS011;14583;43.604;1.364;2022-10-16T05:07:25;20.63;;;10.73;;
26407;SDS011;14583;43.604;1.364;2022-10-16T05:09:50;19.27;;;10.55;;
26407;SDS011;14583;43.604;1.364;2022-10-16T05:12:16;17.05;;;10.95;;
26407;SDS011;14583;43.604;1.364;2022-10-16T05:14:42;16.98;;;10.93;;
26407;SDS011;14583;43.604;1.364;2022-10-16T05:17:08;22.25;;;10.25;;
26407;SDS011;14583;43.604;1.364;2022-10-16T05:19:33;16.85;;;11.25;;
26407;SDS011;14583;43.604;1.364;2022-10-16T05:21:59;24.20;;;10.73;;
26407;SDS011;14583;43.604;1.364;2022-10-16T05:24:25;24.05;;;10.73;;
26407;SDS011;14583;43.604;1.364;2022-10-16T05:26:51;20.48;;;10.30;;
26407;SDS011;14583;43.604;1.364;2022-10-16T05:29:17;18.52;;;10.43;;
26407;SDS011;14583;43.604;1.364;2022-10-16T05:31:42;19.77;;;10.68;;
26407;SDS011;14583;43.604;1.364;2022-10-16T05:34:08;19.65;;;10.80;;
26407;SDS011;14583;43.604;1.364;2022-10-16T05:36:33;16.88;;;10.18;;
26407;SDS011;14583;43.604;1.364;2022-10-16T05:38:59;23.02;;;10.02;;
26407;SDS011;14583;43.604;1.364;2022-10-16T05:41:25;21.88;;;10.80;;
26407;SDS011;14583;43.604;1.364;2022-10-16T05:43:51;19.60;;;10.95;;
26407;SDS011;14583;43.604;1.364;2022-10-16T05:46:17;19.98;;;10.48;;
26407;SDS011;14583;43.604;1.364;2022-10-16T05:48:43;18.38;;;10.32;;
26407;SDS011;14583;43.604;1.364;2022-10-16T05:51:10;18.48;;;10.77;;
26407;SDS011;14583;43.604;1.364;2022-10-16T05:53:37;21.85;;;10.90;;
26407;SDS011;14583;43.604;1.364;2022-10-16T05:56:04;17.02;;;10.10;;
26407;SDS011;14583;43.604;1.364;2022-10-16T05:58:32;22.13;;;11.40;;
26407;SDS011;14583;43.604;1.364;2022-10-16T06:01:04;20.80;;;10.90;;
26407;SDS011;14583;43.604;1.364;2022-10-16T06:03:34;18.40;;;11.43;;
26407;SDS011;14583;43.604;1.364;2022-10-16T06:06:06;16.30;;;11.00;;
26407;SDS011;14583;43.604;1.364;2022-10-16T06:08:36;17.77;;;11.00;;
26407;SDS011;14583;43.604;1.364;2022-10-16T06:11:05;18.90;;;10.98;;
26407;SDS011;14583;43.604;1.364;2022-10-16T06:13:32;18.75;;;11.57;;
26407;SDS011;14583;43.604;1.364;2022-10-16T06:15:58;19.27;;;11.02;;
26407;SDS011;14583;43.604;1.364;2022-10-16T06:18:25;17.35;;;11.60;;
26407;SDS011;14583;43.604;1.364;2022-10-16T06:20:52;20.58;;;10.57;;
26407;SDS011;14583;43.604;1.364;2022-10-16T06:23:17;15.93;;;11.00;;
26407;SDS011;14583;43.604;1.364;2022-10-16T06:25:43;20.48;;;11.07;;
26407;SDS011;14583;43.604;1.364;2022-10-16T06:28:09;17.15;;;10.55;;
26407;SDS011;14583;43.604;1.364;2022-10-16T06:30:34;21.45;;;11.07;;
26407;SDS011;14583;43.604;1.364;2022-10-16T06:33:00;19.52;;;10.77;;
26407;SDS011;14583;43.604;1.364;2022-10-16T06:35:25;23.13;;;11.27;;
26407;SDS011;14583;43.604;1.364;2022-10-16T06:37:52;20.92;;;11.70;;
26407;SDS011;14583;43.604;1.364;2022-10-16T06:40:18;21.42;;;10.90;;
26407;SDS011;14583;43.604;1.364;2022-10-16T06:42:44;27.58;;;11.65;;
26407;SDS011;14583;43.604;1.364;2022-10-16T06:45:10;22.63;;;11.20;;
26407;SDS011;14583;43.604;1.364;2022-10-16T06:47:36;19.70;;;11.80;;
26407;SDS011;14583;43.604;1.364;2022-10-16T06:50:02;18.08;;;11.40;;
26407;SDS011;14583;43.604;1.364;2022-10-16T06:52:28;21.40;;;12.55;;
26407;SDS011;14583;43.604;1.364;2022-10-16T06:54:54;23.45;;;12.20;;
26407;SDS011;14583;43.604;1.364;2022-10-16T06:57:20;21.17;;;11.77;;
26407;SDS011;14583;43.604;1.364;2022-10-16T06:59:46;21.42;;;11.77;;
26407;SDS011;14583;43.604;1.364;2022-10-16T07:02:12;21.92;;;11.90;;
26407;SDS011;14583;43.604;1.364;2022-10-16T07:04:37;14.80;;;11.65;;
26407;SDS011;14583;43.604;1.364;2022-10-16T07:07:03;17.30;;;11.70;;
26407;SDS011;14583;43.604;1.364;2022-10-16T07:09:29;19.10;;;11.88;;
26407;SDS011;14583;43.604;1.364;2022-10-16T07:11:54;23.35;;;12.40;;
26407;SDS011;14583;43.604;1.364;2022-10-16T07:14:21;20.52;;;12.32;;
26407;SDS011;14583;43.604;1.364;2022-10-16T07:16:47;18.13;;;11.52;;
26407;SDS011;14583;43.604;1.364;2022-10-16T07:19:13;21.90;;;11.60;;
26407;SDS011;14583;43.604;1.364;2022-10-16T07:21:41;20.10;;;10.88;;
26407;SDS011;14583;43.604;1.364;2022-10-16T07:24:11;18.25;;;10.50;;
26407;SDS011;14583;43.604;1.364;2022-10-16T07:26:38;16.27;;;9.98;;
26407;SDS011;14583;43.604;1.364;2022-10-16T07:29:15;15.75;;;10.30;;
26407;SDS011;14583;43.604;1.364;2022-10-16T07:31:42;20.58;;;11.20;;
26407;SDS011;14583;43.604;1.364;2022-10-16T07:34:09;16.05;;;10.88;;
26407;SDS011;14583;43.604;1.364;2022-10-16T07:36:39;15.70;;;11.10;;
26407;SDS011;14583;43.604;1.364;2022-10-16T07:39:04;19.48;;;11.18;;
26407;SDS011;14583;43.604;1.364;2022-10-16T07:41:30;16.25;;;10.63;;
26407;SDS011;14583;43.604;1.364;2022-10-16T07:43:58;16.80;;;9.85;;
26407;SDS011;14583;43.604;1.364;2022-10-16T07:46:27;13.63;;;9.23;;
26407;SDS011;14583;43.604;1.364;2022-10-16T07:48:53;16.25;;;10.10;;
26407;SDS011;14583;43.604;1.364;2022-10-16T07:51:19;12.60;;;10.40;;
26407;SDS011;14583;43.604;1.364;2022-10-16T07:53:47;14.82;;;9.40;;
26407;SDS011;14583;43.604;1.364;2022-10-16T07:56:14;25.25;;;10.32;;
26407;SDS011;14583;43.604;1.364;2022-10-16T07:58:41;17.73;;;10.07;;
26407;SDS011;14583;43.604;1.364;2022-10-16T08:01:07;19.05;;;10.25;;
26407;SDS011;14583;43.604;1.364;2022-10-16T08:03:35;16.73;;;8.98;;
26407;SDS011;14583;43.604;1.364;2022-10-16T08:06:01;21.42;;;9.82;;
26407;SDS011;14583;43.604;1.364;2022-10-16T08:08:28;13.70;;;8.73;;
26407;SDS011;14583;43.604;1.364;2022-10-16T08:10:54;13.27;;;9.18;;
26407;SDS011;14583;43.604;1.364;2022-10-16T08:13:20;14.98;;;8.50;;
26407;SDS011;14583;43.604;1.364;2022-10-16T08:15:46;11.07;;;8.73;;
26407;SDS011;14583;43.604;1.364;2022-10-16T08:18:12;15.57;;;8.88;;
26407;SDS011;14583;43.604;1.364;2022-10-16T08:20:40;19.23;;;9.90;;
26407;SDS011;14583;43.604;1.364;2022-10-16T08:23:06;14.95;;;9.23;;
26407;SDS011;14583;43.604;1.364;2022-10-16T08:25:35;12.75;;;10.00;;
26407;SDS011;14583;43.604;1.364;2022-10-16T08:28:04;13.68;;;9.07;;
26407;SDS011;14583;43.604;1.364;2022-10-16T08:30:31;23.25;;;10.55;;
26407;SDS011;14583;43.604;1.364;2022-10-16T08:32:57;15.70;;;9.82;;
26407;SDS011;14583;43.604;1.364;2022-10-16T08:35:23;16.13;;;10.05;;
26407;SDS011;14583;43.604;1.364;2022-10-16T08:37:49;15.38;;;10.35;;
26407;SDS011;14583;43.604;1.364;2022-10-16T08:40:16;17.27;;;10.77;;
26407;SDS011;14583;43.604;1.364;2022-10-16T08:51:06;16.20;;;9.82;;
26407;SDS011;14583;43.604;1.364;2022-10-16T08:53:40;15.90;;;9.90;;
26407;SDS011;14583;43.604;1.364;2022-10-16T08:56:11;15.82;;;10.10;;
26407;SDS011;14583;43.604;1.364;2022-10-16T08:58:37;20.70;;;11.05;;
26407;SDS011;14583;43.604;1.364;2022-10-16T09:01:11;17.88;;;11.35;;
26407;SDS011;14583;43.604;1.364;2022-10-16T09:17:18;17.48;;;9.57;;
26407;SDS011;14583;43.604;1.364;2022-10-16T09:22:28;16.45;;;8.50;;
26407;SDS011;14583;43.604;1.364;2022-10-16T09:24:59;25.67;;;10.07;;
26407;SDS011;14583;43.604;1.364;2022-10-16T09:27:26;16.77;;;8.93;;
26407;SDS011;14583;43.604;1.364;2022-10-16T09:29:52;19.08;;;9.52;;
26407;SDS011;14583;43.604;1.364;2022-10-16T09:32:19;16.00;;;9.48;;
26407;SDS011;14583;43.604;1.364;2022-10-16T09:34:48;18.30;;;10.10;;
26407;SDS011;14583;43.604;1.364;2022-10-16T09:37:19;18.38;;;9.00;;
26407;SDS011;14583;43.604;1.364;2022-10-16T09:39:51;15.18;;;8.52;;
26407;SDS011;14583;43.604;1.364;2022-10-16T09:44:52;17.50;;;8.88;;
26407;SDS011;14583;43.604;1.364;2022-10-16T09:52:31;19.10;;;7.85;;
26407;SDS011;14583;43.604;1.364;2022-10-16T09:57:24;24.48;;;8.02;;
26407;SDS011;14583;43.604;1.364;2022-10-16T09:59:51;17.10;;;8.15;;
26407;SDS011;14583;43.604;1.364;2022-10-16T10:02:36;18.38;;;7.90;;
26407;SDS011;14583;43.604;1.364;2022-10-16T10:05:04;19.63;;;8.23;;
26407;SDS011;14583;43.604;1.364;2022-10-16T10:07:42;16.92;;;8.27;;
26407;SDS011;14583;43.604;1.364;2022-10-16T10:10:18;16.70;;;7.82;;
26407;SDS011;14583;43.604;1.364;2022-10-16T10:12:46;22.20;;;7.97;;
26407;SDS011;14583;43.604;1.364;2022-10-16T10:15:12;16.08;;;7.40;;
26407;SDS011;14583;43.604;1.364;2022-10-16T10:17:45;16.10;;;7.45;;
26407;SDS011;14583;43.604;1.364;2022-10-16T10:22:48;14.07;;;6.75;;
26407;SDS011;14583;43.604;1.364;2022-10-16T10:38:23;11.65;;;5.85;;
26407;SDS011;14583;43.604;1.364;2022-10-16T10:43:48;11.75;;;7.05;;
26407;SDS011;14583;43.604;1.364;2022-10-16T10:46:50;16.08;;;6.63;;
26407;SDS011;14583;43.604;1.364;2022-10-16T10:49:25;12.93;;;6.00;;
26407;SDS011;14583;43.604;1.364;2022-10-16T10:55:13;16.02;;;6.50;;
26407;SDS011;14583;43.604;1.364;2022-10-16T11:06:40;11.00;;;5.57;;
26407;SDS011;14583;43.604;1.364;2022-10-16T11:09:33;15.38;;;5.68;;
26407;SDS011;14583;43.604;1.364;2022-10-16T11:14:40;16.23;;;5.60;;
26407;SDS011;14583;43.604;1.364;2022-10-16T11:17:21;15.27;;;6.18;;
26407;SDS011;14583;43.604;1.364;2022-10-16T11:19:58;12.05;;;5.85;;
26407;SDS011;14583;43.604;1.364;2022-10-16T11:22:40;12.88;;;6.20;;
26407;SDS011;14583;43.604;1.364;2022-10-16T11:25:21;10.93;;;5.20;;
26407;SDS011;14583;43.604;1.364;2022-10-16T11:30:28;13.23;;;5.13;;
26407;SDS011;14583;43.604;1.364;2022-10-16T11:38:15;15.52;;;5.55;;
26407;SDS011;14583;43.604;1.364;2022-10-16T11:41:12;16.27;;;5.75;;
26407;SDS011;14583;43.604;1.364;2022-10-16T11:46:46;15.38;;;5.30;;
26407;SDS011;14583;43.604;1.364;2022-10-16T11:49:21;13.10;;;5.53;;
26407;SDS011;14583;43.604;1.364;2022-10-16T11:54:55;13.25;;;5.47;;
26407;SDS011;14583;43.604;1.364;2022-10-16T11:57:32;10.40;;;5.28;;
26407;SDS011;14583;43.604;1.364;2022-10-16T12:00:10;12.10;;;5.22;;
26407;SDS011;14583;43.604;1.364;2022-10-16T12:08:25;13.52;;;4.72;;
26407;SDS011;14583;43.604;1.364;2022-10-16T12:10:51;22.77;;;5.15;;
26407;SDS011;14583;43.604;1.364;2022-10-16T12:16:04;12.38;;;4.85;;
26407;SDS011;14583;43.604;1.364;2022-10-16T12:18:29;8.50;;;4.30;;
26407;SDS011;14583;43.604;1.364;2022-10-16T12:20:56;11.38;;;4.80;;
26407;SDS011;14583;43.604;1.364;2022-10-16T12:23:29;9.75;;;4.57;;
26407;SDS011;14583;43.604;1.364;2022-10-16T12:25:57;9.70;;;4.25;;
26407;SDS011;14583;43.604;1.364;2022-10-16T12:28:31;12.10;;;4.65;;
26407;SDS011;14583;43.604;1.364;2022-10-16T12:31:02;7.13;;;4.00;;
26407;SDS011;14583;43.604;1.364;2022-10-16T12:33:34;13.23;;;4.53;;
26407;SDS011;14583;43.604;1.364;2022-10-16T12:36:02;6.93;;;4.18;;
26407;SDS011;14583;43.604;1.364;2022-10-16T12:38:52;21.80;;;4.45;;
26407;SDS011;14583;43.604;1.364;2022-10-16T12:41:34;9.95;;;3.92;;
26407;SDS011;14583;43.604;1.364;2022-10-16T12:44:04;11.52;;;3.72;;
26407;SDS011;14583;43.604;1.364;2022-10-16T12:51:39;7.55;;;3.58;;
26407;SDS011;14583;43.604;1.364;2022-10-16T12:54:16;10.77;;;3.60;;
26407;SDS011;14583;43.604;1.364;2022-10-16T13:11:14;6.53;;;3.45;;
26407;SDS011;14583;43.604;1.364;2022-10-16T13:22:15;8.70;;;3.28;;
26407;SDS011;14583;43.604;1.364;2022-10-16T13:25:13;12.52;;;3.55;;
26407;SDS011;14583;43.604;1.364;2022-10-16T13:27:59;8.02;;;3.10;;
26407;SDS011;14583;43.604;1.364;2022-10-16T13:30:37;6.97;;;3.13;;
26407;SDS011;14583;43.604;1.364;2022-10-16T13:35:59;10.52;;;2.90;;
26407;SDS011;14583;43.604;1.364;2022-10-16T13:38:35;10.10;;;2.97;;
26407;SDS011;14583;43.604;1.364;2022-10-16T13:41:02;8.93;;;3.08;;
26407;SDS011;14583;43.604;1.364;2022-10-16T13:46:05;8.25;;;3.00;;
26407;SDS011;14583;43.604;1.364;2022-10-16T13:48:36;9.20;;;3.08;;
26407;SDS011;14583;43.604;1.364;2022-10-16T13:51:03;6.97;;;3.00;;
26407;SDS011;14583;43.604;1.364;2022-10-16T13:53:43;8.82;;;2.95;;
26407;SDS011;14583;43.604;1.364;2022-10-16T13:56:10;8.70;;;2.97;;
26407;SDS011;14583;43.604;1.364;2022-10-16T13:58:37;10.38;;;3.63;;
26407;SDS011;14583;43.604;1.364;2022-10-16T14:01:04;7.57;;;3.17;;
26407;SDS011;14583;43.604;1.364;2022-10-16T14:03:45;10.93;;;3.42;;
26407;SDS011;14583;43.604;1.364;2022-10-16T14:06:12;12.40;;;3.10;;
26407;SDS011;14583;43.604;1.364;2022-10-16T14:09:05;5.78;;;2.67;;
26407;SDS011;14583;43.604;1.364;2022-10-16T14:11:46;7.40;;;2.80;;
26407;SDS011;14583;43.604;1.364;2022-10-16T14:14:16;8.77;;;2.85;;
26407;SDS011;14583;43.604;1.364;2022-10-16T14:16:43;9.10;;;3.08;;
26407;SDS011;14583;43.604;1.364;2022-10-16T14:19:29;8.48;;;3.00;;
26407;SDS011;14583;43.604;1.364;2022-10-16T14:21:55;8.98;;;2.70;;
26407;SDS011;14583;43.604;1.364;2022-10-16T14:24:31;10.65;;;2.92;;
26407;SDS011;14583;43.604;1.364;2022-10-16T14:26:58;11.25;;;3.28;;
26407;SDS011;14583;43.604;1.364;2022-10-16T14:29:26;7.40;;;3.15;;
26407;SDS011;14583;43.604;1.364;2022-10-16T14:31:59;11.90;;;3.25;;
26407;SDS011;14583;43.604;1.364;2022-10-16T14:34:28;11.77;;;3.10;;
26407;SDS011;14583;43.604;1.364;2022-10-16T14:36:55;10.18;;;2.95;;
26407;SDS011;14583;43.604;1.364;2022-10-16T14:39:21;11.20;;;3.00;;
26407;SDS011;14583;43.604;1.364;2022-10-16T14:41:49;12.38;;;2.95;;
26407;SDS011;14583;43.604;1.364;2022-10-16T14:44:18;15.93;;;3.50;;
26407;SDS011;14583;43.604;1.364;2022-10-16T14:46:48;10.93;;;3.20;;
26407;SDS011;14583;43.604;1.364;2022-10-16T14:49:17;11.85;;;3.22;;
26407;SDS011;14583;43.604;1.364;2022-10-16T14:51:45;13.45;;;3.30;;
26407;SDS011;14583;43.604;1.364;2022-10-16T14:54:12;12.45;;;3.10;;
26407;SDS011;14583;43.604;1.364;2022-10-16T15:04:50;13.52;;;2.90;;
26407;SDS011;14583;43.604;1.364;2022-10-16T15:07:16;10.82;;;2.88;;
26407;SDS011;14583;43.604;1.364;2022-10-16T15:09:42;11.70;;;2.78;;
26407;SDS011;14583;43.604;1.364;2022-10-16T15:12:08;11.50;;;2.65;;
26407;SDS011;14583;43.604;1.364;2022-10-16T15:14:33;10.65;;;3.08;;
26407;SDS011;14583;43.604;1.364;2022-10-16T15:16:59;10.00;;;2.95;;
26407;SDS011;14583;43.604;1.364;2022-10-16T15:19:24;7.90;;;3.22;;
26407;SDS011;14583;43.604;1.364;2022-10-16T15:21:50;8.48;;;3.00;;
26407;SDS011;14583;43.604;1.364;2022-10-16T15:24:17;12.15;;;3.28;;
26407;SDS011;14583;43.604;1.364;2022-10-16T15:26:43;10.57;;;3.00;;
26407;SDS011;14583;43.604;1.364;2022-10-16T15:29:10;7.40;;;2.85;;
26407;SDS011;14583;43.604;1.364;2022-10-16T15:31:37;11.55;;;2.63;;
26407;SDS011;14583;43.604;1.364;2022-10-16T15:34:03;5.97;;;2.80;;
26407;SDS011;14583;43.604;1.364;2022-10-16T15:36:34;6.85;;;2.33;;
26407;SDS011;14583;43.604;1.364;2022-10-16T15:39:02;10.25;;;2.78;;
26407;SDS011;14583;43.604;1.364;2022-10-16T15:41:37;12.38;;;2.80;;
26407;SDS011;14583;43.604;1.364;2022-10-16T15:44:03;8.73;;;3.20;;
26407;SDS011;14583;43.604;1.364;2022-10-16T15:46:28;5.82;;;2.60;;
26407;SDS011;14583;43.604;1.364;2022-10-16T15:48:56;11.23;;;3.05;;
26407;SDS011;14583;43.604;1.364;2022-10-16T15:51:23;9.00;;;2.70;;
26407;SDS011;14583;43.604;1.364;2022-10-16T15:53:49;12.38;;;3.35;;
26407;SDS011;14583;43.604;1.364;2022-10-16T15:56:16;10.15;;;3.42;;
26407;SDS011;14583;43.604;1.364;2022-10-16T15:58:42;10.57;;;2.92;;
26407;SDS011;14583;43.604;1.364;2022-10-16T16:01:08;9.98;;;2.88;;
26407;SDS011;14583;43.604;1.364;2022-10-16T16:03:37;8.68;;;2.78;;
26407;SDS011;14583;43.604;1.364;2022-10-16T16:06:06;7.25;;;2.90;;
26407;SDS011;14583;43.604;1.364;2022-10-16T16:08:37;6.68;;;2.88;;
26407;SDS011;14583;43.604;1.364;2022-10-16T16:11:07;8.68;;;2.70;;
26407;SDS011;14583;43.604;1.364;2022-10-16T16:13:34;9.73;;;3.15;;
26407;SDS011;14583;43.604;1.364;2022-10-16T16:16:04;11.07;;;3.40;;
26407;SDS011;14583;43.604;1.364;2022-10-16T16:18:30;8.55;;;2.72;;
26407;SDS011;14583;43.604;1.364;2022-10-16T16:20:56;9.85;;;3.22;;
26407;SDS011;14583;43.604;1.364;2022-10-16T16:23:22;9.63;;;2.88;;
26407;SDS011;14583;43.604;1.364;2022-10-16T16:28:32;10.68;;;2.90;;
26407;SDS011;14583;43.604;1.364;2022-10-16T16:30:58;8.70;;;3.00;;
26407;SDS011;14583;43.604;1.364;2022-10-16T16:33:24;8.75;;;3.08;;
26407;SDS011;14583;43.604;1.364;2022-10-16T16:35:49;9.80;;;3.17;;
26407;SDS011;14583;43.604;1.364;2022-10-16T16:38:15;11.52;;;3.35;;
26407;SDS011;14583;43.604;1.364;2022-10-16T16:40:40;14.95;;;3.58;;
26407;SDS011;14583;43.604;1.364;2022-10-16T16:43:06;11.63;;;3.63;;
26407;SDS011;14583;43.604;1.364;2022-10-16T16:45:35;12.52;;;3.83;;
26407;SDS011;14583;43.604;1.364;2022-10-16T16:48:00;10.30;;;3.47;;
26407;SDS011;14583;43.604;1.364;2022-10-16T16:50:26;10.82;;;3.90;;
26407;SDS011;14583;43.604;1.364;2022-10-16T16:52:52;9.80;;;2.92;;
26407;SDS011;14583;43.604;1.364;2022-10-16T16:55:18;9.10;;;3.80;;
26407;SDS011;14583;43.604;1.364;2022-10-16T16:57:44;12.60;;;3.97;;
26407;SDS011;14583;43.604;1.364;2022-10-16T17:00:13;9.18;;;3.75;;
26407;SDS011;14583;43.604;1.364;2022-10-16T17:02:38;9.57;;;3.17;;
26407;SDS011;14583;43.604;1.364;2022-10-16T17:05:08;14.40;;;3.95;;
26407;SDS011;14583;43.604;1.364;2022-10-16T17:07:34;11.90;;;3.35;;